Time;durP1;ratioP1;P1;durP2;ratioP2;P2;SDS_P1;SDS_P2;PMS_P1;PMS_P2;Temp;Humidity;BMP_temperature;BMP_pressure;BME280_temperature;BME280_humidity;BME280_pressure;Samples;Min_cycle;Max_cycle;Signal;HPM_P1;HPM_P2
2023/05/24 00:00:36;;;;;;;13.70;3.67;;;;;;;;;;4971458;28;20049;-45
2023/05/24 00:03:05;;;;;;;12.70;3.97;;;;;;;;;;4978083;28;20488;-47
2023/05/24 00:05:36;;;;;;;12.30;3.60;;;;;;;;;;4962014;28;20034;-47
2023/05/24 00:08:04;;;;;;;12.30;3.80;;;;;;;;;;4984026;28;20030;-45
2023/05/24 00:10:32;;;;;;;9.85;3.72;;;;;;;;;;4973255;28;20046;-44
2023/05/24 00:13:02;;;;;;;11.13;3.40;;;;;;;;;;4988194;28;20038;-47
2023/05/24 00:15:30;;;;;;;15.10;3.28;;;;;;;;;;4966194;28;20042;-44
2023/05/24 00:17:59;;;;;;;8.93;2.57;;;;;;;;;;4971217;28;20042;-45
2023/05/24 00:20:27;;;;;;;11.13;2.92;;;;;;;;;;4979496;28;20531;-44
2023/05/24 00:22:55;;;;;;;8.90;3.28;;;;;;;;;;4984023;28;20053;-46
2023/05/24 00:25:23;;;;;;;7.93;2.53;;;;;;;;;;4974306;28;20050;-44
2023/05/24 00:27:51;;;;;;;8.30;2.65;;;;;;;;;;4955398;28;20033;-44
2023/05/24 00:30:21;;;;;;;10.17;2.60;;;;;;;;;;4964326;28;20432;-47
2023/05/24 00:32:53;;;;;;;8.13;3.00;;;;;;;;;;4965297;28;20564;-46
2023/05/24 00:35:21;;;;;;;8.10;2.30;;;;;;;;;;4976799;28;20042;-46
2023/05/24 00:37:50;;;;;;;7.50;1.90;;;;;;;;;;4982088;28;20558;-45
2023/05/24 00:40:18;;;;;;;8.20;2.03;;;;;;;;;;4960124;28;20568;-44
2023/05/24 00:42:46;;;;;;;7.80;1.80;;;;;;;;;;4976372;28;20038;-45
2023/05/24 00:45:14;;;;;;;8.82;2.08;;;;;;;;;;4965311;28;20117;-46
2023/05/24 00:47:43;;;;;;;12.18;2.35;;;;;;;;;;4973578;28;20038;-45
2023/05/24 00:50:15;;;;;;;10.45;2.15;;;;;;;;;;4975882;28;20627;-44
2023/05/24 00:52:44;;;;;;;7.97;2.05;;;;;;;;;;4964790;28;20038;-45
2023/05/24 00:55:16;;;;;;;10.67;2.03;;;;;;;;;;4990102;28;20571;-44
2023/05/24 00:57:44;;;;;;;8.25;1.67;;;;;;;;;;4966853;28;20053;-45
2023/05/24 01:00:13;;;;;;;6.38;1.95;;;;;;;;;;4977398;28;20039;-44
2023/05/24 01:02:41;;;;;;;10.15;2.42;;;;;;;;;;4963125;28;20049;-47
2023/05/24 01:05:12;;;;;;;8.20;1.45;;;;;;;;;;4976883;28;20049;-45
2023/05/24 01:07:46;;;;;;;6.07;2.13;;;;;;;;;;4967844;28;20043;-44
2023/05/24 01:10:17;;;;;;;5.35;1.70;;;;;;;;;;4974184;28;20523;-44
2023/05/24 01:12:51;;;;;;;7.75;1.65;;;;;;;;;;4978925;28;20039;-44
2023/05/24 01:15:23;;;;;;;6.05;1.70;;;;;;;;;;4972192;28;20060;-45
2023/05/24 01:18:00;;;;;;;6.50;1.77;;;;;;;;;;4973446;28;20077;-44
2023/05/24 01:20:32;;;;;;;10.10;1.93;;;;;;;;;;4967949;28;20081;-47
2023/05/24 01:23:21;;;;;;;7.25;1.70;;;;;;;;;;4985250;28;20049;-44
2023/05/24 01:26:04;;;;;;;7.22;1.77;;;;;;;;;;4959894;28;20057;-44
2023/05/24 01:28:34;;;;;;;6.45;1.73;;;;;;;;;;4957011;28;20081;-46
2023/05/24 01:31:03;;;;;;;6.57;1.60;;;;;;;;;;4978922;28;20038;-45
2023/05/24 01:33:33;;;;;;;8.47;1.30;;;;;;;;;;4948888;28;20389;-44
2023/05/24 01:36:01;;;;;;;8.15;1.67;;;;;;;;;;4979793;28;20495;-45
2023/05/24 01:38:29;;;;;;;10.30;1.90;;;;;;;;;;4984585;28;20045;-43
2023/05/24 01:40:59;;;;;;;6.90;1.50;;;;;;;;;;4968330;28;20050;-44
2023/05/24 01:43:31;;;;;;;8.27;1.75;;;;;;;;;;4981829;28;20034;-44
2023/05/24 01:46:03;;;;;;;8.13;1.67;;;;;;;;;;4967024;28;20124;-46
2023/05/24 01:48:34;;;;;;;6.43;1.77;;;;;;;;;;4981177;28;20745;-44
2023/05/24 01:51:05;;;;;;;7.50;1.75;;;;;;;;;;4973377;28;20069;-46
2023/05/24 01:53:34;;;;;;;4.63;1.20;;;;;;;;;;4979134;28;20046;-45
2023/05/24 01:56:05;;;;;;;6.15;1.73;;;;;;;;;;4978228;28;20666;-44
2023/05/24 01:58:33;;;;;;;9.27;1.90;;;;;;;;;;4971350;28;20046;-45
2023/05/24 02:01:02;;;;;;;9.13;1.55;;;;;;;;;;4974466;28;20060;-45
2023/05/24 02:03:31;;;;;;;10.32;1.70;;;;;;;;;;4966458;28;20038;-44
2023/05/24 02:06:00;;;;;;;6.60;1.30;;;;;;;;;;4979077;28;20070;-43
2023/05/24 02:08:28;;;;;;;10.63;1.63;;;;;;;;;;4970474;28;20303;-47
2023/05/24 02:10:55;;;;;;;7.97;1.80;;;;;;;;;;4946544;28;20038;-45
2023/05/24 02:13:24;;;;;;;6.18;1.65;;;;;;;;;;4941143;28;20262;-45
2023/05/24 02:15:52;;;;;;;7.38;1.55;;;;;;;;;;4986617;28;20053;-44
2023/05/24 02:18:21;;;;;;;6.82;1.30;;;;;;;;;;4975528;28;20129;-44
2023/05/24 02:20:51;;;;;;;6.75;1.40;;;;;;;;;;4975202;28;20046;-45
2023/05/24 02:23:19;;;;;;;6.93;1.60;;;;;;;;;;4971415;28;20113;-44
2023/05/24 02:25:47;;;;;;;7.38;1.50;;;;;;;;;;4978552;28;20045;-44
2023/05/24 02:28:16;;;;;;;7.50;1.45;;;;;;;;;;4976968;28;20630;-44
2023/05/24 02:30:44;;;;;;;8.02;1.60;;;;;;;;;;4946660;28;20042;-46
2023/05/24 02:33:14;;;;;;;9.10;2.65;;;;;;;;;;4972581;28;20054;-46
2023/05/24 02:35:45;;;;;;;9.87;1.40;;;;;;;;;;4976857;28;20094;-44
2023/05/24 02:38:13;;;;;;;8.50;1.35;;;;;;;;;;4979279;28;20045;-45
2023/05/24 02:40:41;;;;;;;5.47;1.33;;;;;;;;;;4972014;28;20052;-44
2023/05/24 02:43:10;;;;;;;8.93;2.03;;;;;;;;;;4956941;28;20039;-43
2023/05/24 02:45:38;;;;;;;7.70;2.25;;;;;;;;;;4972415;28;20068;-44
2023/05/24 02:48:06;;;;;;;8.37;1.27;;;;;;;;;;4964908;28;20473;-43
2023/05/24 02:50:35;;;;;;;13.45;1.80;;;;;;;;;;4971236;28;20034;-44
2023/05/24 02:53:05;;;;;;;10.32;1.88;;;;;;;;;;4960758;28;20050;-44
2023/05/24 02:55:33;;;;;;;6.95;1.77;;;;;;;;;;4985573;28;20049;-45
2023/05/24 02:58:02;;;;;;;7.82;1.23;;;;;;;;;;4981309;28;20507;-44
2023/05/24 03:00:30;;;;;;;8.13;1.77;;;;;;;;;;4936969;28;20092;-43
2023/05/24 03:03:01;;;;;;;6.05;1.80;;;;;;;;;;4978527;28;20041;-43
2023/05/24 03:05:32;;;;;;;6.53;1.90;;;;;;;;;;4976824;28;20657;-46
2023/05/24 03:07:59;;;;;;;6.13;1.52;;;;;;;;;;4970412;28;20053;-45
2023/05/24 03:10:28;;;;;;;6.10;1.80;;;;;;;;;;4984863;28;20049;-46
2023/05/24 03:12:57;;;;;;;9.00;1.60;;;;;;;;;;4957912;28;20049;-45
2023/05/24 03:15:25;;;;;;;7.63;1.40;;;;;;;;;;4978574;28;20547;-45
2023/05/24 03:17:53;;;;;;;6.85;2.13;;;;;;;;;;4963048;28;20499;-45
2023/05/24 03:20:22;;;;;;;8.85;1.70;;;;;;;;;;4990819;28;20069;-45
2023/05/24 03:22:50;;;;;;;6.45;1.70;;;;;;;;;;4975171;28;20046;-46
2023/05/24 03:25:17;;;;;;;5.97;1.93;;;;;;;;;;4976818;28;20046;-44
2023/05/24 03:27:48;;;;;;;6.60;1.80;;;;;;;;;;4972463;28;20097;-45
2023/05/24 03:30:16;;;;;;;6.45;1.92;;;;;;;;;;4977745;28;20050;-43
2023/05/24 03:32:44;;;;;;;7.63;2.00;;;;;;;;;;4952028;28;20050;-43
2023/05/24 03:35:12;;;;;;;7.90;1.90;;;;;;;;;;4973950;28;20044;-45
2023/05/24 03:37:40;;;;;;;10.97;1.93;;;;;;;;;;4983660;28;20046;-45
2023/05/24 03:40:08;;;;;;;8.82;2.35;;;;;;;;;;4984444;28;20034;-47
2023/05/24 03:42:37;;;;;;;9.43;2.13;;;;;;;;;;4969523;28;20080;-47
2023/05/24 03:45:07;;;;;;;6.45;1.80;;;;;;;;;;4977070;28;20727;-45
2023/05/24 03:47:34;;;;;;;8.30;2.15;;;;;;;;;;4965498;28;20117;-45
2023/05/24 03:50:04;;;;;;;10.30;1.97;;;;;;;;;;4972574;28;20850;-45
2023/05/24 03:52:32;;;;;;;7.47;1.83;;;;;;;;;;4987710;28;20205;-44
2023/05/24 03:55:00;;;;;;;8.93;2.22;;;;;;;;;;4980667;28;20045;-47
2023/05/24 03:57:29;;;;;;;8.80;2.28;;;;;;;;;;4977674;28;20033;-46
2023/05/24 03:59:59;;;;;;;8.65;1.90;;;;;;;;;;4955931;28;20077;-49
2023/05/24 04:02:27;;;;;;;5.70;1.70;;;;;;;;;;4983221;28;20042;-46
2023/05/24 04:04:57;;;;;;;7.55;2.10;;;;;;;;;;4974903;28;20614;-46
2023/05/24 04:07:24;;;;;;;8.93;2.17;;;;;;;;;;4959083;28;20760;-47
2023/05/24 04:09:52;;;;;;;8.88;2.08;;;;;;;;;;4974142;28;20057;-46
2023/05/24 04:12:21;;;;;;;9.98;2.08;;;;;;;;;;4968359;28;20041;-45
2023/05/24 04:14:48;;;;;;;7.97;2.00;;;;;;;;;;4957143;28;20892;-46
2023/05/24 04:17:17;;;;;;;8.98;1.83;;;;;;;;;;4972301;28;20093;-46
2023/05/24 04:19:47;;;;;;;8.77;2.33;;;;;;;;;;4979392;28;20436;-45
2023/05/24 04:22:16;;;;;;;6.93;1.75;;;;;;;;;;4958515;28;20137;-45
2023/05/24 04:24:44;;;;;;;8.13;1.80;;;;;;;;;;4972712;28;20053;-45
2023/05/24 04:27:13;;;;;;;8.30;1.53;;;;;;;;;;4975840;28;20127;-48
2023/05/24 04:29:41;;;;;;;8.40;1.70;;;;;;;;;;4973932;28;20485;-45
2023/05/24 04:32:09;;;;;;;7.95;2.08;;;;;;;;;;4973436;28;20047;-44
2023/05/24 04:34:41;;;;;;;12.38;1.77;;;;;;;;;;4976793;28;20104;-46
2023/05/24 04:37:12;;;;;;;10.50;2.20;;;;;;;;;;4973364;28;20038;-46
2023/05/24 04:39:41;;;;;;;6.80;1.73;;;;;;;;;;4974647;28;20042;-45
2023/05/24 04:42:09;;;;;;;8.85;2.25;;;;;;;;;;4974665;28;20056;-46
2023/05/24 04:44:36;;;;;;;9.15;2.55;;;;;;;;;;4973131;28;20460;-45
2023/05/24 04:47:06;;;;;;;5.80;1.60;;;;;;;;;;4959916;28;20045;-46
2023/05/24 04:49:34;;;;;;;10.90;2.20;;;;;;;;;;4978256;28;20045;-46
2023/05/24 04:52:01;;;;;;;10.83;2.00;;;;;;;;;;4965807;28;20046;-45
2023/05/24 04:54:32;;;;;;;8.85;1.85;;;;;;;;;;4971750;28;20424;-46
2023/05/24 04:57:00;;;;;;;11.80;2.65;;;;;;;;;;4969266;28;20073;-43
2023/05/24 04:59:27;;;;;;;13.13;2.63;;;;;;;;;;4970260;28;20034;-46
2023/05/24 05:01:56;;;;;;;10.27;2.10;;;;;;;;;;4969496;28;20539;-48
2023/05/24 05:04:24;;;;;;;8.03;1.73;;;;;;;;;;4957183;28;20072;-46
2023/05/24 05:06:52;;;;;;;8.57;1.67;;;;;;;;;;4966701;28;20041;-47
2023/05/24 05:09:23;;;;;;;6.13;1.88;;;;;;;;;;4968030;28;20038;-47
2023/05/24 05:11:52;;;;;;;7.70;1.65;;;;;;;;;;4962565;28;20042;-49
2023/05/24 05:14:19;;;;;;;9.02;1.85;;;;;;;;;;4971333;28;20072;-46
2023/05/24 05:16:49;;;;;;;5.90;2.00;;;;;;;;;;4977254;28;20042;-46
2023/05/24 05:19:17;;;;;;;10.88;2.30;;;;;;;;;;4977550;28;20076;-46
2023/05/24 05:21:46;;;;;;;10.00;1.92;;;;;;;;;;4941076;28;20056;-46
2023/05/24 05:24:18;;;;;;;8.52;2.38;;;;;;;;;;4961949;28;20046;-46
2023/05/24 05:26:46;;;;;;;9.15;2.20;;;;;;;;;;4934498;28;20042;-46
2023/05/24 05:29:15;;;;;;;10.00;1.70;;;;;;;;;;4936549;28;20050;-48
2023/05/24 05:31:44;;;;;;;9.18;2.50;;;;;;;;;;4927238;28;20207;-44
2023/05/24 05:34:12;;;;;;;12.57;2.53;;;;;;;;;;4949694;28;20046;-43
2023/05/24 05:36:41;;;;;;;10.68;2.03;;;;;;;;;;4933311;28;20055;-46
2023/05/24 05:39:10;;;;;;;8.02;1.85;;;;;;;;;;4939567;28;20318;-43
2023/05/24 05:41:39;;;;;;;9.07;2.30;;;;;;;;;;4932293;28;20665;-48
2023/05/24 05:44:06;;;;;;;7.68;1.85;;;;;;;;;;4926658;28;20035;-43
2023/05/24 05:46:37;;;;;;;7.40;2.55;;;;;;;;;;4918179;28;20047;-46
2023/05/24 05:49:06;;;;;;;7.28;2.10;;;;;;;;;;4934404;28;20575;-44
2023/05/24 05:51:35;;;;;;;8.93;2.40;;;;;;;;;;4930882;28;22677;-49
2023/05/24 05:54:04;;;;;;;11.80;1.83;;;;;;;;;;4935556;28;20039;-46
2023/05/24 05:56:38;;;;;;;10.77;1.33;;;;;;;;;;4935798;28;20496;-48
2023/05/24 05:59:06;;;;;;;10.18;2.33;;;;;;;;;;4933729;28;20038;-46
2023/05/24 06:01:34;;;;;;;7.60;1.80;;;;;;;;;;4926359;28;20035;-44
2023/05/24 06:04:03;;;;;;;8.55;1.48;;;;;;;;;;4940883;28;20046;-43
2023/05/24 06:06:33;;;;;;;11.27;1.90;;;;;;;;;;4938527;28;20051;-45
2023/05/24 06:09:00;;;;;;;11.23;1.92;;;;;;;;;;4935933;28;20047;-44
2023/05/24 06:11:28;;;;;;;7.85;1.80;;;;;;;;;;4940000;28;20050;-44
2023/05/24 06:13:57;;;;;;;7.95;1.42;;;;;;;;;;4933010;28;20200;-43
2023/05/24 06:16:25;;;;;;;8.43;1.67;;;;;;;;;;4942916;28;20035;-44
2023/05/24 06:18:52;;;;;;;10.97;1.90;;;;;;;;;;4926578;28;20792;-44
2023/05/24 06:21:35;;;;;;;8.32;1.20;;;;;;;;;;4971312;28;20706;-43
2023/05/24 06:24:03;;;;;;;10.73;1.73;;;;;;;;;;4972274;28;20038;-45
2023/05/24 06:26:32;;;;;;;8.88;1.50;;;;;;;;;;4977519;28;20046;-46
2023/05/24 06:29:01;;;;;;;9.05;1.50;;;;;;;;;;4976636;28;20046;-43
2023/05/24 06:31:29;;;;;;;6.90;1.53;;;;;;;;;;4973248;28;20042;-46
2023/05/24 06:33:57;;;;;;;10.35;1.40;;;;;;;;;;4974380;28;20157;-43
2023/05/24 06:36:29;;;;;;;8.80;1.73;;;;;;;;;;4958896;28;20117;-49
2023/05/24 06:39:01;;;;;;;6.95;1.48;;;;;;;;;;4977527;28;20041;-43
2023/05/24 06:41:28;;;;;;;9.52;1.70;;;;;;;;;;4984214;28;20038;-45
2023/05/24 06:43:56;;;;;;;9.30;1.40;;;;;;;;;;4981270;28;20034;-46
2023/05/24 06:46:25;;;;;;;12.07;1.73;;;;;;;;;;4974636;28;20065;-44
2023/05/24 06:48:52;;;;;;;6.85;1.85;;;;;;;;;;4983456;28;20038;-43
2023/05/24 06:51:20;;;;;;;10.82;1.40;;;;;;;;;;4958600;28;20057;-47
2023/05/24 06:53:49;;;;;;;12.20;1.77;;;;;;;;;;4977867;28;20088;-43
2023/05/24 06:56:18;;;;;;;9.47;1.60;;;;;;;;;;4982713;28;20044;-43
2023/05/24 06:58:46;;;;;;;11.07;1.40;;;;;;;;;;4979108;28;20046;-44
2023/05/24 07:01:15;;;;;;;11.25;1.88;;;;;;;;;;4967872;28;20038;-45
2023/05/24 07:03:43;;;;;;;10.55;1.50;;;;;;;;;;4976818;28;20042;-43
2023/05/24 07:06:12;;;;;;;9.30;2.00;;;;;;;;;;4974452;28;20046;-44
2023/05/24 07:08:42;;;;;;;7.87;1.33;;;;;;;;;;4979446;28;20140;-45
2023/05/24 07:11:10;;;;;;;9.75;1.70;;;;;;;;;;4969093;28;20050;-44
2023/05/24 07:13:40;;;;;;;10.93;1.58;;;;;;;;;;4981274;28;20493;-44
2023/05/24 07:16:10;;;;;;;6.43;1.45;;;;;;;;;;4974659;28;20735;-45
2023/05/24 07:18:40;;;;;;;9.32;2.63;;;;;;;;;;4978772;28;20053;-44
2023/05/24 07:21:08;;;;;;;8.03;1.40;;;;;;;;;;4992845;28;20139;-43
2023/05/24 07:23:37;;;;;;;12.93;1.60;;;;;;;;;;4963948;28;20093;-43
2023/05/24 07:26:05;;;;;;;9.25;1.75;;;;;;;;;;4967703;28;20045;-47
2023/05/24 07:28:36;;;;;;;11.38;1.80;;;;;;;;;;4965626;28;20815;-44
2023/05/24 07:31:06;;;;;;;8.23;2.33;;;;;;;;;;4984849;28;20121;-44
2023/05/24 07:33:36;;;;;;;7.30;1.53;;;;;;;;;;4971175;28;20040;-46
2023/05/24 07:36:03;;;;;;;9.10;1.48;;;;;;;;;;4982785;28;20046;-44
2023/05/24 07:38:33;;;;;;;7.68;2.05;;;;;;;;;;4957136;28;20038;-47
2023/05/24 07:41:02;;;;;;;7.22;1.95;;;;;;;;;;4976623;28;20528;-46
2023/05/24 07:43:29;;;;;;;10.15;1.80;;;;;;;;;;4964603;28;21212;-45
2023/05/24 07:45:57;;;;;;;7.10;1.53;;;;;;;;;;4986864;28;20089;-46
2023/05/24 07:48:27;;;;;;;9.63;1.58;;;;;;;;;;4975333;28;20622;-45
2023/05/24 07:50:55;;;;;;;7.65;1.50;;;;;;;;;;4981654;28;20053;-45
2023/05/24 07:53:23;;;;;;;8.90;1.63;;;;;;;;;;4954663;28;20064;-44
2023/05/24 07:55:51;;;;;;;8.90;2.17;;;;;;;;;;4985340;28;20511;-46
2023/05/24 07:58:18;;;;;;;9.97;1.83;;;;;;;;;;4951502;28;20057;-43
2023/05/24 08:00:46;;;;;;;8.48;1.90;;;;;;;;;;4959433;28;20053;-44
2023/05/24 08:03:14;;;;;;;10.55;1.75;;;;;;;;;;4944142;28;20041;-45
2023/05/24 08:05:43;;;;;;;6.15;1.77;;;;;;;;;;4967755;28;20124;-44
2023/05/24 08:08:12;;;;;;;10.95;1.80;;;;;;;;;;4958254;28;20053;-45
2023/05/24 08:10:40;;;;;;;10.10;1.77;;;;;;;;;;4952510;28;20037;-44
2023/05/24 08:13:08;;;;;;;6.35;1.58;;;;;;;;;;4972275;28;20050;-44
2023/05/24 08:15:36;;;;;;;6.57;1.90;;;;;;;;;;4961623;28;20571;-45
2023/05/24 08:18:04;;;;;;;9.98;2.60;;;;;;;;;;4947472;28;20037;-44
2023/05/24 08:20:34;;;;;;;8.43;2.03;;;;;;;;;;4958778;28;20340;-47
2023/05/24 08:23:04;;;;;;;8.43;1.97;;;;;;;;;;4970921;28;20663;-44
2023/05/24 08:25:32;;;;;;;10.90;2.45;;;;;;;;;;4960813;28;20050;-44
2023/05/24 08:28:00;;;;;;;8.48;2.47;;;;;;;;;;4964588;28;20057;-45
2023/05/24 08:30:28;;;;;;;13.32;2.22;;;;;;;;;;4956698;28;20112;-46
2023/05/24 08:32:56;;;;;;;6.60;2.05;;;;;;;;;;4973562;28;20045;-45
2023/05/24 08:35:24;;;;;;;11.13;1.80;;;;;;;;;;4955618;28;20050;-46
2023/05/24 08:37:53;;;;;;;8.50;1.90;;;;;;;;;;4957235;28;20049;-46
2023/05/24 08:40:24;;;;;;;8.23;2.00;;;;;;;;;;4968607;28;20050;-46
2023/05/24 08:42:52;;;;;;;5.60;1.80;;;;;;;;;;4966931;28;20053;-44
2023/05/24 08:45:21;;;;;;;12.13;2.38;;;;;;;;;;4948126;28;20149;-46
2023/05/24 08:47:50;;;;;;;6.37;1.83;;;;;;;;;;4954854;28;20424;-45
2023/05/24 08:50:19;;;;;;;11.50;2.10;;;;;;;;;;4967860;28;20290;-44
2023/05/24 08:52:47;;;;;;;9.10;2.13;;;;;;;;;;4958185;28;20696;-44
2023/05/24 08:55:17;;;;;;;6.90;1.88;;;;;;;;;;4966430;28;20498;-45
2023/05/24 08:57:46;;;;;;;5.78;1.50;;;;;;;;;;4956959;28;20038;-45
2023/05/24 09:00:15;;;;;;;12.30;1.80;;;;;;;;;;4964932;28;20044;-46
2023/05/24 09:02:43;;;;;;;9.85;2.00;;;;;;;;;;4961847;28;21120;-44
2023/05/24 09:05:13;;;;;;;10.98;1.88;;;;;;;;;;4968698;28;20475;-45
2023/05/24 09:07:41;;;;;;;7.30;1.83;;;;;;;;;;4935917;28;20045;-45
2023/05/24 09:10:10;;;;;;;8.45;2.50;;;;;;;;;;4966440;28;20038;-45
2023/05/24 09:12:39;;;;;;;9.60;1.53;;;;;;;;;;4966513;28;20050;-44
2023/05/24 09:15:09;;;;;;;5.97;1.85;;;;;;;;;;4972118;28;20047;-46
2023/05/24 09:17:39;;;;;;;8.10;2.03;;;;;;;;;;4953216;28;20053;-44
2023/05/24 09:20:09;;;;;;;10.73;1.85;;;;;;;;;;4963386;28;20066;-45
2023/05/24 09:22:40;;;;;;;9.35;2.17;;;;;;;;;;4967179;28;20034;-45
2023/05/24 09:25:10;;;;;;;7.03;1.70;;;;;;;;;;4954420;28;20121;-47
2023/05/24 09:27:38;;;;;;;8.13;2.17;;;;;;;;;;4966719;28;20471;-45
2023/05/24 09:30:11;;;;;;;8.88;2.00;;;;;;;;;;4956930;28;20046;-44
2023/05/24 09:32:39;;;;;;;8.18;2.10;;;;;;;;;;4967259;28;21549;-49
2023/05/24 09:35:09;;;;;;;6.70;1.58;;;;;;;;;;4961287;28;20081;-47
2023/05/24 09:37:39;;;;;;;8.50;2.13;;;;;;;;;;4956496;28;20053;-47
2023/05/24 09:40:11;;;;;;;10.38;2.20;;;;;;;;;;4962430;28;20042;-47
2023/05/24 09:42:39;;;;;;;8.35;2.17;;;;;;;;;;4966098;28;20669;-46
2023/05/24 09:45:09;;;;;;;6.85;2.05;;;;;;;;;;4952992;28;20951;-48
2023/05/24 09:47:37;;;;;;;9.20;2.40;;;;;;;;;;4954974;28;21062;-46
2023/05/24 09:50:12;;;;;;;9.53;1.90;;;;;;;;;;4952050;28;20415;-46
2023/05/24 09:52:39;;;;;;;8.32;2.05;;;;;;;;;;4949748;28;20496;-45
2023/05/24 09:55:11;;;;;;;7.20;2.03;;;;;;;;;;4960478;28;20842;-45
2023/05/24 09:57:39;;;;;;;7.40;2.35;;;;;;;;;;4956985;28;20045;-44
2023/05/24 10:00:16;;;;;;;5.63;1.90;;;;;;;;;;4965371;28;20049;-45
2023/05/24 10:02:44;;;;;;;11.37;1.93;;;;;;;;;;4962812;28;20068;-47
2023/05/24 10:05:20;;;;;;;8.50;2.35;;;;;;;;;;4962971;28;20068;-49
2023/05/24 10:07:49;;;;;;;5.93;1.50;;;;;;;;;;4955924;28;21389;-44
2023/05/24 10:10:18;;;;;;;8.68;1.83;;;;;;;;;;4966226;28;20507;-45
2023/05/24 10:12:46;;;;;;;7.22;1.77;;;;;;;;;;4959199;28;20351;-44
2023/05/24 10:15:17;;;;;;;7.30;1.90;;;;;;;;;;4971260;28;20038;-46
2023/05/24 10:17:46;;;;;;;10.15;1.85;;;;;;;;;;4953086;28;20061;-46
2023/05/24 10:20:16;;;;;;;9.48;2.25;;;;;;;;;;4957225;28;20524;-45
2023/05/24 10:22:45;;;;;;;5.50;1.58;;;;;;;;;;4968383;28;20049;-46
2023/05/24 10:25:16;;;;;;;8.45;2.30;;;;;;;;;;4952904;28;20054;-46
2023/05/24 10:27:45;;;;;;;6.60;1.70;;;;;;;;;;4955279;28;20148;-44
2023/05/24 10:30:19;;;;;;;6.35;2.13;;;;;;;;;;4958517;28;20057;-47
2023/05/24 10:32:49;;;;;;;8.77;2.17;;;;;;;;;;4970363;28;20050;-46
2023/05/24 10:35:19;;;;;;;8.40;2.13;;;;;;;;;;4955424;28;20034;-47
2023/05/24 10:37:47;;;;;;;7.30;1.58;;;;;;;;;;4956693;28;21649;-45
2023/05/24 10:40:19;;;;;;;10.80;1.93;;;;;;;;;;4965519;28;20042;-44
2023/05/24 10:42:53;;;;;;;7.03;1.95;;;;;;;;;;4954215;28;20042;-46
2023/05/24 10:45:34;;;;;;;6.40;1.90;;;;;;;;;;4956528;28;20049;-45
2023/05/24 10:48:08;;;;;;;8.18;2.08;;;;;;;;;;4946347;28;20057;-46
2023/05/24 10:50:36;;;;;;;7.40;1.95;;;;;;;;;;4962129;28;20054;-46
2023/05/24 10:53:13;;;;;;;11.43;1.97;;;;;;;;;;4967908;28;20046;-45
2023/05/24 10:55:54;;;;;;;6.72;1.80;;;;;;;;;;4972463;28;20899;-48
2023/05/24 10:58:23;;;;;;;7.47;2.10;;;;;;;;;;4950680;28;20208;-47
2023/05/24 11:00:55;;;;;;;6.68;2.13;;;;;;;;;;4979588;28;20039;-47
2023/05/24 11:03:24;;;;;;;7.70;1.90;;;;;;;;;;4962745;28;20037;-46
2023/05/24 11:05:53;;;;;;;7.17;2.10;;;;;;;;;;4971127;28;20094;-47
2023/05/24 11:08:23;;;;;;;8.00;2.00;;;;;;;;;;4984772;28;20092;-46
2023/05/24 11:10:51;;;;;;;10.80;2.40;;;;;;;;;;4974606;28;20042;-45
2023/05/24 11:13:20;;;;;;;6.80;1.70;;;;;;;;;;4978887;28;20467;-46
2023/05/24 11:15:51;;;;;;;5.60;1.77;;;;;;;;;;4969017;28;20034;-46
2023/05/24 11:18:23;;;;;;;7.50;1.73;;;;;;;;;;4977297;28;20038;-48
2023/05/24 11:20:52;;;;;;;7.28;1.88;;;;;;;;;;4985258;28;20057;-45
2023/05/24 11:23:21;;;;;;;7.93;2.00;;;;;;;;;;4968755;28;20173;-45
2023/05/24 11:25:49;;;;;;;7.30;1.92;;;;;;;;;;4988097;28;20045;-49
2023/05/24 11:28:18;;;;;;;9.57;1.88;;;;;;;;;;4982813;28;20038;-47
2023/05/24 11:30:47;;;;;;;6.70;1.83;;;;;;;;;;4976224;28;20304;-48
2023/05/24 11:33:16;;;;;;;8.18;2.45;;;;;;;;;;4949666;28;20469;-47
2023/05/24 11:35:46;;;;;;;8.75;2.33;;;;;;;;;;4971009;28;20061;-45
2023/05/24 11:38:15;;;;;;;6.22;2.00;;;;;;;;;;4975990;28;20042;-46
2023/05/24 11:40:44;;;;;;;6.25;1.90;;;;;;;;;;4967601;28;20245;-45
2023/05/24 11:43:14;;;;;;;9.77;2.20;;;;;;;;;;4984712;28;20129;-47
2023/05/24 11:45:44;;;;;;;11.35;2.70;;;;;;;;;;4978124;28;20129;-45
2023/05/24 11:48:12;;;;;;;6.18;1.70;;;;;;;;;;4960661;28;20038;-47
2023/05/24 11:50:40;;;;;;;7.38;2.10;;;;;;;;;;4962750;28;20113;-45
2023/05/24 11:53:19;;;;;;;6.20;2.17;;;;;;;;;;4973048;28;20124;-46
2023/05/24 11:55:48;;;;;;;8.73;1.50;;;;;;;;;;4974866;28;20042;-46
2023/05/24 11:58:19;;;;;;;5.50;1.58;;;;;;;;;;4967616;28;20204;-45
2023/05/24 12:00:47;;;;;;;5.90;1.75;;;;;;;;;;4979315;28;20503;-48
2023/05/24 12:03:16;;;;;;;6.47;1.65;;;;;;;;;;4967652;28;20706;-47
2023/05/24 12:05:45;;;;;;;6.63;1.50;;;;;;;;;;4975650;28;20178;-46
2023/05/24 12:08:14;;;;;;;8.43;1.40;;;;;;;;;;4981988;28;20042;-46
2023/05/24 12:10:43;;;;;;;7.28;1.90;;;;;;;;;;4967664;28;20045;-45
2023/05/24 12:13:20;;;;;;;7.60;1.80;;;;;;;;;;4972606;28;20030;-46
2023/05/24 12:15:49;;;;;;;6.20;1.60;;;;;;;;;;4959283;28;20037;-46
2023/05/24 12:18:23;;;;;;;6.97;1.65;;;;;;;;;;4979690;28;20052;-47
2023/05/24 12:20:51;;;;;;;6.10;1.70;;;;;;;;;;4968498;28;20054;-48
2023/05/24 12:23:22;;;;;;;5.15;1.50;;;;;;;;;;4966551;28;20034;-46
2023/05/24 12:25:57;;;;;;;6.10;1.90;;;;;;;;;;4969665;28;20034;-45
2023/05/24 12:28:26;;;;;;;7.15;1.83;;;;;;;;;;4976790;28;20042;-46
2023/05/24 12:30:54;;;;;;;7.72;2.05;;;;;;;;;;4976229;28;20496;-45
2023/05/24 12:33:23;;;;;;;5.37;1.47;;;;;;;;;;4972086;28;20038;-45
2023/05/24 12:35:52;;;;;;;7.53;1.73;;;;;;;;;;4976769;28;20088;-45
2023/05/24 12:38:24;;;;;;;7.28;1.85;;;;;;;;;;4977329;28;20035;-46
2023/05/24 12:40:54;;;;;;;6.35;1.60;;;;;;;;;;4974010;28;20042;-45
2023/05/24 12:43:39;;;;;;;8.73;2.40;;;;;;;;;;4970677;28;20069;-47
2023/05/24 12:46:07;;;;;;;7.27;1.90;;;;;;;;;;4979265;28;20046;-46
2023/05/24 12:48:35;;;;;;;7.22;1.77;;;;;;;;;;4963839;28;20038;-46
2023/05/24 12:51:03;;;;;;;11.00;1.90;;;;;;;;;;4962762;28;20042;-45
2023/05/24 12:53:31;;;;;;;6.97;2.00;;;;;;;;;;4965237;28;20038;-46
2023/05/24 12:56:00;;;;;;;8.38;2.17;;;;;;;;;;4983812;28;20089;-46
2023/05/24 12:58:30;;;;;;;7.30;2.13;;;;;;;;;;4975369;28;20507;-47
2023/05/24 13:00:58;;;;;;;8.52;2.20;;;;;;;;;;4967709;28;20408;-45
2023/05/24 13:03:27;;;;;;;6.82;1.98;;;;;;;;;;4983186;28;20081;-44
2023/05/24 13:05:55;;;;;;;6.82;1.73;;;;;;;;;;4966066;28;20046;-45
2023/05/24 13:08:23;;;;;;;7.78;2.17;;;;;;;;;;4987962;28;20046;-46
2023/05/24 13:10:52;;;;;;;5.93;2.00;;;;;;;;;;4974147;28;20561;-50
2023/05/24 13:13:23;;;;;;;6.85;2.58;;;;;;;;;;4982543;28;20530;-50
2023/05/24 13:15:52;;;;;;;7.15;1.98;;;;;;;;;;4938725;28;20571;-45
2023/05/24 13:18:20;;;;;;;6.80;1.88;;;;;;;;;;4979952;28;20500;-49
2023/05/24 13:20:49;;;;;;;7.95;1.95;;;;;;;;;;4971886;28;20068;-45
2023/05/24 13:23:17;;;;;;;8.40;1.77;;;;;;;;;;4958991;28;20047;-45
2023/05/24 13:25:46;;;;;;;6.95;2.15;;;;;;;;;;4989723;28;20041;-45
2023/05/24 13:28:14;;;;;;;7.68;1.92;;;;;;;;;;4959045;28;20050;-45
2023/05/24 13:30:46;;;;;;;7.05;1.67;;;;;;;;;;4974600;28;20173;-47
2023/05/24 13:33:15;;;;;;;6.72;2.05;;;;;;;;;;4982354;28;20071;-46
2023/05/24 13:35:43;;;;;;;9.63;2.33;;;;;;;;;;4967503;28;20065;-46
2023/05/24 13:38:11;;;;;;;7.22;1.90;;;;;;;;;;4971385;28;20041;-47
2023/05/24 13:40:40;;;;;;;5.85;1.80;;;;;;;;;;4954483;28;20096;-45
2023/05/24 13:43:11;;;;;;;6.38;1.98;;;;;;;;;;4979442;28;20378;-44
2023/05/24 13:45:38;;;;;;;6.55;2.10;;;;;;;;;;4970345;28;20038;-46
2023/05/24 13:48:08;;;;;;;4.60;1.90;;;;;;;;;;4973579;28;20101;-46
2023/05/24 13:50:38;;;;;;;6.57;2.20;;;;;;;;;;4970424;28;20575;-45
2023/05/24 13:53:06;;;;;;;7.03;2.28;;;;;;;;;;4975304;28;20557;-45
2023/05/24 13:55:36;;;;;;;7.40;2.40;;;;;;;;;;4963526;28;20371;-46
2023/05/24 13:58:04;;;;;;;9.77;2.47;;;;;;;;;;4982356;28;20041;-47
2023/05/24 14:00:34;;;;;;;12.07;2.63;;;;;;;;;;4974680;28;20046;-45
2023/05/24 14:03:03;;;;;;;7.15;2.55;;;;;;;;;;4977568;28;20125;-45
2023/05/24 14:05:35;;;;;;;5.78;2.40;;;;;;;;;;4960230;28;20109;-46
2023/05/24 14:08:05;;;;;;;11.85;2.50;;;;;;;;;;4955544;28;20077;-44
2023/05/24 14:10:35;;;;;;;10.75;3.22;;;;;;;;;;4977511;28;20046;-45
2023/05/24 14:13:03;;;;;;;6.27;2.13;;;;;;;;;;4972333;28;20038;-47
2023/05/24 14:15:38;;;;;;;5.88;2.50;;;;;;;;;;4969970;28;21126;-45
2023/05/24 14:18:06;;;;;;;7.88;2.50;;;;;;;;;;4970960;28;21040;-45
2023/05/24 14:20:37;;;;;;;5.80;2.50;;;;;;;;;;4979004;28;20513;-45
2023/05/24 14:23:06;;;;;;;9.02;2.85;;;;;;;;;;4966720;28;20066;-45
2023/05/24 14:25:34;;;;;;;8.57;2.77;;;;;;;;;;4977780;28;20049;-46
2023/05/24 14:28:03;;;;;;;6.28;2.35;;;;;;;;;;4963150;28;20049;-46
2023/05/24 14:30:32;;;;;;;7.55;2.78;;;;;;;;;;4977606;28;20057;-46
2023/05/24 14:33:01;;;;;;;5.90;2.28;;;;;;;;;;4963556;28;20051;-48
2023/05/24 14:35:36;;;;;;;12.15;3.40;;;;;;;;;;4973425;28;20050;-46
2023/05/24 14:38:08;;;;;;;7.70;2.87;;;;;;;;;;4976915;28;20048;-48
2023/05/24 14:40:37;;;;;;;7.53;2.67;;;;;;;;;;4970392;28;20574;-45
2023/05/24 14:43:06;;;;;;;9.35;2.63;;;;;;;;;;4985906;28;20731;-47
2023/05/24 14:45:37;;;;;;;7.82;2.95;;;;;;;;;;4968052;28;20416;-45
2023/05/24 14:48:05;;;;;;;8.98;3.15;;;;;;;;;;4960237;28;20041;-46
2023/05/24 14:50:33;;;;;;;6.80;3.00;;;;;;;;;;4966650;28;20030;-46
2023/05/24 14:53:07;;;;;;;7.38;3.13;;;;;;;;;;4973636;28;20038;-47